createdAt,value
2023-01-19T00:01:09.620Z,131.97
2023-01-19T00:03:39.704Z,130.07
2023-01-19T00:06:09.614Z,117.80
2023-01-19T00:08:39.146Z,114.47
2023-01-19T00:11:08.551Z,100.70
2023-01-19T00:13:38.530Z,109.80
2023-01-19T00:16:08.563Z,102.53
2023-01-19T00:18:37.635Z,105.33
2023-01-19T00:21:08.293Z,100.10
2023-01-19T00:23:37.483Z,97.30
2023-01-19T00:26:06.657Z,88.67
2023-01-19T00:28:35.939Z,88.83
2023-01-19T00:31:04.876Z,83.97
2023-01-19T00:33:34.191Z,80.17
2023-01-19T00:36:03.111Z,84.10
2023-01-19T00:38:33.657Z,76.40
2023-01-19T00:41:02.579Z,79.10
2023-01-19T00:43:31.594Z,82.20
2023-01-19T00:46:00.676Z,72.00
2023-01-19T00:48:30.807Z,68.77
2023-01-19T00:51:00.112Z,75.40
2023-01-19T00:53:32.703Z,79.00
2023-01-19T00:56:03.425Z,78.47
2023-01-19T00:58:32.327Z,93.67
2023-01-19T01:01:04.808Z,83.53
2023-01-19T01:03:34.458Z,74.00
2023-01-19T01:06:03.800Z,73.10
2023-01-19T01:08:32.753Z,83.63
2023-01-19T01:11:03.398Z,81.33
2023-01-19T01:13:32.811Z,81.40
2023-01-19T01:16:02.000Z,83.10
2023-01-19T01:18:30.902Z,88.80
2023-01-19T01:21:03.172Z,92.17
2023-01-19T01:23:32.367Z,95.63
2023-01-19T01:26:03.153Z,99.80
2023-01-19T01:28:32.559Z,109.17
2023-01-19T01:31:01.631Z,102.33
2023-01-19T01:33:40.953Z,102.80
2023-01-19T01:36:11.744Z,104.03
2023-01-19T01:38:41.085Z,108.83
2023-01-19T01:41:12.209Z,111.00
2023-01-19T01:43:47.136Z,111.13
2023-01-19T01:46:17.399Z,115.67
2023-01-19T01:48:51.148Z,105.93
2023-01-19T01:51:25.617Z,108.57
2023-01-19T01:54:08.159Z,109.10
2023-01-19T01:56:41.029Z,110.63
2023-01-19T01:59:18.068Z,110.17
2023-01-19T02:02:18.821Z,102.67
2023-01-19T02:04:52.352Z,93.77
2023-01-19T02:07:45.456Z,105.10
2023-01-19T02:10:31.694Z,109.77
2023-01-19T02:13:21.426Z,117.27
2023-01-19T02:15:52.852Z,113.17
2023-01-19T02:18:23.909Z,107.60
2023-01-19T02:21:00.530Z,109.63
2023-01-19T02:23:40.668Z,107.70
2023-01-19T02:26:11.532Z,105.20
2023-01-19T02:28:43.278Z,88.77
2023-01-19T02:31:12.919Z,90.73
2023-01-19T02:33:41.963Z,89.50
2023-01-19T02:36:15.245Z,99.77
2023-01-19T02:38:47.266Z,99.97
2023-01-19T02:41:20.707Z,111.43
2023-01-19T02:43:51.377Z,113.47
2023-01-19T02:46:20.495Z,103.17
2023-01-19T02:48:49.461Z,113.37
2023-01-19T02:51:22.566Z,90.30
2023-01-19T02:54:14.751Z,103.20
2023-01-19T02:56:56.439Z,106.83
2023-01-19T02:59:37.255Z,102.33
2023-01-19T03:02:23.166Z,96.87
2023-01-19T03:05:14.290Z,95.77
2023-01-19T03:08:01.224Z,93.97
2023-01-19T03:10:37.724Z,83.83
2023-01-19T03:13:14.268Z,78.53
2023-01-19T03:15:48.281Z,78.20
2023-01-19T03:18:22.570Z,78.30
2023-01-19T03:20:54.921Z,84.50
2023-01-19T03:23:29.054Z,74.90
2023-01-19T03:26:01.584Z,84.13
2023-01-19T03:28:32.289Z,71.80
2023-01-19T03:31:06.341Z,70.50
2023-01-19T03:33:38.708Z,75.20
2023-01-19T03:36:14.408Z,84.60
2023-01-19T03:38:44.470Z,75.50
2023-01-19T03:41:18.095Z,74.60
2023-01-19T03:43:51.387Z,72.57
2023-01-19T03:46:22.067Z,73.03
2023-01-19T03:48:51.598Z,70.87
2023-01-19T03:51:20.775Z,74.47
2023-01-19T03:53:50.117Z,71.83
2023-01-19T03:56:22.803Z,66.10
2023-01-19T03:58:52.468Z,67.77
2023-01-19T04:01:23.006Z,67.53
2023-01-19T04:03:52.754Z,67.33
2023-01-19T04:06:22.486Z,71.77
2023-01-19T04:08:52.876Z,64.40
2023-01-19T04:11:23.341Z,71.90
2023-01-19T04:13:52.459Z,69.87
2023-01-19T04:16:21.618Z,72.33
2023-01-19T04:18:50.775Z,76.97
2023-01-19T04:21:20.299Z,78.60
2023-01-19T04:23:49.983Z,66.57
2023-01-19T04:26:18.982Z,65.33
2023-01-19T04:28:49.632Z,65.93
2023-01-19T04:31:19.388Z,66.30
2023-01-19T04:33:48.393Z,67.40
2023-01-19T04:36:17.631Z,61.23
2023-01-19T04:38:48.672Z,75.70
2023-01-19T04:41:18.399Z,72.67
2023-01-19T04:43:49.027Z,69.47
2023-01-19T04:46:18.106Z,72.37
2023-01-19T04:48:46.878Z,70.33
2023-01-19T04:51:15.946Z,79.77
2023-01-19T04:53:45.009Z,71.90
2023-01-19T04:56:14.046Z,71.43
2023-01-19T04:58:43.101Z,70.67
2023-01-19T05:01:14.034Z,68.97
2023-01-19T05:03:43.099Z,68.17
2023-01-19T05:06:12.084Z,64.47
2023-01-19T05:08:41.273Z,69.53
2023-01-19T05:11:10.287Z,67.83
2023-01-19T05:13:39.429Z,67.43
2023-01-19T05:16:09.353Z,64.97
2023-01-19T05:18:40.415Z,68.07
2023-01-19T05:21:09.526Z,71.67
2023-01-19T05:23:38.455Z,63.37
2023-01-19T05:26:09.456Z,61.60
2023-01-19T05:28:38.935Z,72.17
2023-01-19T05:31:08.261Z,66.03
2023-01-19T05:33:37.440Z,62.27
2023-01-19T05:36:08.504Z,59.27
2023-01-19T05:38:37.543Z,61.17
2023-01-19T05:41:06.947Z,58.27
2023-01-19T05:43:35.988Z,51.27
2023-01-19T05:46:06.573Z,52.97
2023-01-19T05:48:35.690Z,56.13
2023-01-19T05:51:05.105Z,52.30
2023-01-19T05:53:35.929Z,44.50
2023-01-19T05:56:09.548Z,49.63
2023-01-19T05:58:39.486Z,49.33
2023-01-19T06:01:10.707Z,47.30
2023-01-19T06:03:41.082Z,44.00
2023-01-19T06:06:10.098Z,45.60
2023-01-19T06:08:40.884Z,47.50
2023-01-19T06:11:09.887Z,47.67
2023-01-19T06:13:41.385Z,50.80
2023-01-19T06:16:11.969Z,43.23
2023-01-19T06:18:40.960Z,50.60
2023-01-19T06:21:12.478Z,42.70
2023-01-19T06:23:43.386Z,46.67
2023-01-19T06:26:12.423Z,51.07
2023-01-19T06:28:41.497Z,45.57
2023-01-19T06:31:10.541Z,49.03
2023-01-19T06:33:39.631Z,49.47
2023-01-19T06:36:08.860Z,47.77
2023-01-19T06:38:37.994Z,48.03
2023-01-19T06:41:08.669Z,46.33
2023-01-19T06:43:37.783Z,49.87
2023-01-19T06:46:07.264Z,51.40
2023-01-19T06:48:36.295Z,100.40
2023-01-19T06:51:06.031Z,64.97
2023-01-19T06:53:35.183Z,54.93
2023-01-19T06:56:05.100Z,51.33
2023-01-19T06:58:35.997Z,57.20
2023-01-19T07:01:06.598Z,47.90
2023-01-19T07:03:37.325Z,45.30
2023-01-19T07:06:08.038Z,46.63
2023-01-19T07:08:38.001Z,47.50
2023-01-19T07:11:26.575Z,44.13
2023-01-19T07:13:59.182Z,46.10
2023-01-19T07:16:28.296Z,44.73
2023-01-19T07:18:57.556Z,44.03
2023-01-19T07:21:28.935Z,42.07
2023-01-19T07:23:58.280Z,47.77
2023-01-19T07:26:28.069Z,37.97
2023-01-19T07:28:58.388Z,39.47
2023-01-19T07:31:27.843Z,38.10
2023-01-19T07:33:57.993Z,38.93
2023-01-19T07:36:26.969Z,35.47
2023-01-19T07:38:56.108Z,38.97
2023-01-19T07:41:25.220Z,38.50
2023-01-19T07:43:54.489Z,38.53
2023-01-19T07:46:25.431Z,34.73
2023-01-19T07:48:54.552Z,38.53
2023-01-19T07:51:23.743Z,37.73
2023-01-19T07:53:53.024Z,40.27
2023-01-19T07:56:22.475Z,38.03
2023-01-19T07:58:52.568Z,39.47
2023-01-19T08:01:21.508Z,40.03
2023-01-19T08:03:52.301Z,45.77
2023-01-19T08:06:23.621Z,44.47
2023-01-19T08:08:53.215Z,42.43
2023-01-19T08:11:22.373Z,38.90
2023-01-19T08:13:51.183Z,40.37
2023-01-19T08:16:20.369Z,41.10
2023-01-19T08:18:49.456Z,42.07
2023-01-19T08:21:19.918Z,41.33
2023-01-19T08:23:54.070Z,43.07
2023-01-19T08:26:29.747Z,41.47
2023-01-19T08:29:01.713Z,39.53
2023-01-19T08:31:31.196Z,38.80
2023-01-19T08:34:00.222Z,47.73
2023-01-19T08:36:30.984Z,41.13
2023-01-19T08:39:00.052Z,48.30
2023-01-19T08:41:28.886Z,47.97
2023-01-19T08:43:57.907Z,51.43
2023-01-19T08:46:27.404Z,43.63
2023-01-19T08:48:56.575Z,47.47
2023-01-19T08:51:25.639Z,44.83
2023-01-19T08:53:56.421Z,53.40
2023-01-19T08:56:25.434Z,40.97
2023-01-19T08:59:08.167Z,39.03
2023-01-19T09:01:38.761Z,40.10
2023-01-19T09:04:07.968Z,35.87
2023-01-19T09:06:36.802Z,40.27
2023-01-19T09:09:07.651Z,43.90
2023-01-19T09:11:36.772Z,41.80
2023-01-19T09:14:06.072Z,41.67
2023-01-19T09:16:35.195Z,44.80
2023-01-19T09:19:04.572Z,45.40
2023-01-19T09:21:33.540Z,47.50
2023-01-19T09:24:02.497Z,39.23
2023-01-19T09:26:33.362Z,25.87
2023-01-19T09:29:02.447Z,34.80
2023-01-19T09:31:31.550Z,31.53
2023-01-19T09:34:00.730Z,35.27
2023-01-19T09:36:30.161Z,34.87
2023-01-19T09:38:59.285Z,34.00
2023-01-19T09:41:28.508Z,35.80
2023-01-19T09:44:01.807Z,39.60
2023-01-19T09:46:38.819Z,38.20
2023-01-19T09:49:14.664Z,32.27
2023-01-19T09:51:47.799Z,30.33
2023-01-19T09:54:18.609Z,29.57
2023-01-19T09:56:52.353Z,28.50
2023-01-19T09:59:26.152Z,26.23
2023-01-19T10:02:14.387Z,20.07
2023-01-19T10:04:44.828Z,18.67
2023-01-19T10:07:23.900Z,16.10
2023-01-19T10:10:09.178Z,12.90
2023-01-19T10:12:46.702Z,15.57
2023-01-19T10:15:27.033Z,17.67
2023-01-19T10:18:09.523Z,16.23
2023-01-19T10:20:41.978Z,17.93
2023-01-19T10:23:30.708Z,18.43
2023-01-19T10:26:02.564Z,21.20
2023-01-19T10:28:32.094Z,29.03
2023-01-19T10:31:05.089Z,24.87
2023-01-19T10:33:35.666Z,25.13
2023-01-19T10:36:16.816Z,23.53
2023-01-19T10:38:46.391Z,22.30
2023-01-19T10:41:24.331Z,23.97
2023-01-19T10:44:01.407Z,24.33
2023-01-19T10:46:38.799Z,24.90
2023-01-19T10:49:08.887Z,22.47
2023-01-19T10:51:49.096Z,23.40
2023-01-19T10:54:18.565Z,24.13
2023-01-19T10:56:53.845Z,22.50
2023-01-19T10:59:35.087Z,23.43
2023-01-19T11:02:17.337Z,22.80
2023-01-19T11:04:50.121Z,20.33
2023-01-19T11:07:22.322Z,21.10
2023-01-19T11:10:07.296Z,21.80
2023-01-19T11:12:41.046Z,24.03
2023-01-19T11:15:17.272Z,24.13
2023-01-19T11:17:48.944Z,23.63
2023-01-19T11:20:24.702Z,23.37
2023-01-19T11:23:07.077Z,21.90
2023-01-19T11:25:37.885Z,23.50
2023-01-19T11:28:07.287Z,22.07
2023-01-19T11:30:36.949Z,39.23
2023-01-19T11:33:08.147Z,24.03
2023-01-19T11:35:39.639Z,27.33
2023-01-19T11:38:27.737Z,29.90
2023-01-19T11:40:58.739Z,25.50
2023-01-19T11:43:43.506Z,23.00
2023-01-19T11:46:19.191Z,23.40
2023-01-19T11:49:01.373Z,27.03
2023-01-19T11:51:37.085Z,26.17
2023-01-19T11:54:18.724Z,25.10
2023-01-19T11:56:52.010Z,24.90
2023-01-19T11:59:22.495Z,28.23
2023-01-19T12:01:57.490Z,25.97
2023-01-19T12:04:32.650Z,27.53
2023-01-19T12:07:07.650Z,26.73
2023-01-19T12:09:42.769Z,24.97
2023-01-19T12:12:25.452Z,28.53
2023-01-19T12:14:59.513Z,29.53
2023-01-19T12:17:30.883Z,31.43
2023-01-19T12:20:08.279Z,28.90
2023-01-19T12:22:49.526Z,26.03
2023-01-19T12:25:24.581Z,28.00
2023-01-19T12:27:54.847Z,28.27
2023-01-19T12:30:26.523Z,133.23
2023-01-19T12:33:22.321Z,65.83
2023-01-19T12:36:01.151Z,32.37
2023-01-19T12:38:48.023Z,38.03
2023-01-19T12:41:23.233Z,30.50
2023-01-19T12:44:19.294Z,28.97
2023-01-19T12:46:50.658Z,24.57
2023-01-19T12:49:29.895Z,25.27
2023-01-19T12:52:28.738Z,25.80
2023-01-19T12:55:08.082Z,32.67
2023-01-19T12:57:42.081Z,27.97
2023-01-19T13:00:31.636Z,23.23
2023-01-19T13:03:01.668Z,25.53
2023-01-19T13:06:00.888Z,26.10
2023-01-19T13:08:52.904Z,30.07
2023-01-19T13:11:26.704Z,26.23
2023-01-19T13:14:35.658Z,25.87
2023-01-19T13:17:30.777Z,26.40
2023-01-19T13:20:25.517Z,27.63
2023-01-19T13:23:18.392Z,25.10
2023-01-19T13:26:03.905Z,28.47
2023-01-19T13:28:40.578Z,27.10
2023-01-19T13:31:10.242Z,25.37
2023-01-19T13:33:46.297Z,24.43
2023-01-19T13:36:26.727Z,25.60
2023-01-19T13:38:57.963Z,23.60
2023-01-19T13:41:30.774Z,24.90
2023-01-19T13:44:10.563Z,26.67
2023-01-19T13:46:40.743Z,25.60
2023-01-19T13:49:18.553Z,24.43
2023-01-19T13:51:49.581Z,25.63
2023-01-19T13:54:19.567Z,34.13
2023-01-19T13:56:50.131Z,28.17
2023-01-19T13:59:20.995Z,28.70
2023-01-19T14:01:51.295Z,26.33
2023-01-19T14:04:29.292Z,27.93
2023-01-19T14:07:01.828Z,25.00
2023-01-19T14:09:30.946Z,30.07
2023-01-19T14:12:10.182Z,26.77
2023-01-19T14:14:41.350Z,41.20
2023-01-19T14:17:25.752Z,42.23
2023-01-19T14:19:56.660Z,46.73
2023-01-19T14:22:40.256Z,35.10
2023-01-19T14:25:32.066Z,40.60
2023-01-19T14:28:29.813Z,34.10
2023-01-19T14:31:02.620Z,41.37
2023-01-19T14:33:36.436Z,40.30
2023-01-19T14:36:22.133Z,37.67
2023-01-19T14:38:53.153Z,42.40
2023-01-19T14:41:28.168Z,38.87
2023-01-19T14:43:57.911Z,48.30
2023-01-19T14:46:29.387Z,50.17
2023-01-19T14:49:03.228Z,45.00
2023-01-19T14:51:32.936Z,53.33
2023-01-19T14:54:03.792Z,55.13
2023-01-19T14:56:35.308Z,56.70
2023-01-19T14:59:11.785Z,50.70
2023-01-19T15:01:42.559Z,51.77
2023-01-19T15:04:11.758Z,52.60
2023-01-19T15:06:45.839Z,39.90
2023-01-19T15:09:15.492Z,44.77
2023-01-19T15:11:47.656Z,39.57
2023-01-19T15:14:18.037Z,43.73
2023-01-19T15:16:49.310Z,45.43
2023-01-19T15:19:19.042Z,44.37
2023-01-19T15:21:48.304Z,54.40
2023-01-19T15:24:18.115Z,46.83
2023-01-19T15:26:47.478Z,42.67
2023-01-19T15:29:22.929Z,43.67
2023-01-19T15:31:54.222Z,45.03
2023-01-19T15:34:23.323Z,49.53
2023-01-19T15:36:52.364Z,48.13
2023-01-19T15:39:21.591Z,49.50
2023-01-19T15:41:50.652Z,50.07
2023-01-19T15:44:19.349Z,46.03
2023-01-19T15:46:48.096Z,44.70
2023-01-19T15:49:18.204Z,46.77
2023-01-19T15:51:46.984Z,43.27
2023-01-19T15:54:16.397Z,75.97
2023-01-19T15:56:45.200Z,85.20
2023-01-19T15:59:14.548Z,180.40
2023-01-19T16:01:43.835Z,94.93
2023-01-19T16:04:13.551Z,60.50
2023-01-19T16:06:44.230Z,55.87
2023-01-19T16:09:18.519Z,57.00
2023-01-19T16:11:47.610Z,55.50
2023-01-19T16:14:17.555Z,67.27
2023-01-19T16:16:46.993Z,80.33
2023-01-19T16:19:16.852Z,76.17
2023-01-19T16:21:47.040Z,72.93
2023-01-19T16:24:16.117Z,79.83
2023-01-19T16:26:45.288Z,81.63
2023-01-19T16:29:14.203Z,82.13
2023-01-19T16:31:45.542Z,83.00
2023-01-19T16:34:14.937Z,80.57
2023-01-19T16:36:44.412Z,67.87
2023-01-19T16:39:16.177Z,78.30
2023-01-19T16:41:46.458Z,85.87
2023-01-19T16:44:17.594Z,93.07
2023-01-19T16:46:49.782Z,99.73
2023-01-19T16:49:21.191Z,94.13
2023-01-19T16:51:50.887Z,96.80
2023-01-19T16:54:23.548Z,103.57
2023-01-19T16:56:53.656Z,94.93
2023-01-19T16:59:24.871Z,97.37
2023-01-19T17:01:54.903Z,102.27
2023-01-19T17:04:24.791Z,100.13
2023-01-19T17:06:54.080Z,108.60
2023-01-19T17:09:25.169Z,102.20
2023-01-19T17:11:55.103Z,102.70
2023-01-19T17:14:24.547Z,147.03
2023-01-19T17:16:54.104Z,177.27
2023-01-19T17:19:23.754Z,158.93
2023-01-19T17:21:53.164Z,145.97
2023-01-19T17:24:24.365Z,141.27
2023-01-19T17:26:53.666Z,124.67
2023-01-19T17:29:22.826Z,127.67
2023-01-19T17:31:52.295Z,135.87
2023-01-19T17:34:24.550Z,131.17
2023-01-19T17:36:54.247Z,128.53
2023-01-19T17:39:25.016Z,134.53
2023-01-19T17:41:54.149Z,128.67
2023-01-19T17:44:23.068Z,115.50
2023-01-19T17:46:52.217Z,104.13
2023-01-19T17:49:21.090Z,105.93
2023-01-19T17:51:54.514Z,97.73
2023-01-19T17:54:25.278Z,96.67
2023-01-19T17:56:54.007Z,100.30
2023-01-19T17:59:23.065Z,118.13
2023-01-19T18:01:52.375Z,132.73
2023-01-19T18:04:21.476Z,107.50
2023-01-19T18:06:50.500Z,97.80
2023-01-19T18:09:19.355Z,105.40
2023-01-19T18:11:49.727Z,107.03
2023-01-19T18:14:18.755Z,101.83
2023-01-19T18:16:47.844Z,93.70
2023-01-19T18:19:16.860Z,103.70
2023-01-19T18:21:45.619Z,97.27
2023-01-19T18:24:14.553Z,100.77
2023-01-19T18:26:43.469Z,102.23
2023-01-19T18:29:13.971Z,129.47
2023-01-19T18:31:43.036Z,128.80
2023-01-19T18:34:12.516Z,135.27
2023-01-19T18:36:41.571Z,177.93
2023-01-19T18:39:10.777Z,120.97
2023-01-19T18:41:42.366Z,110.97
2023-01-19T18:44:12.208Z,128.50
2023-01-19T18:46:42.923Z,129.30
2023-01-19T18:49:12.101Z,139.37
2023-01-19T18:51:42.088Z,143.97
2023-01-19T18:54:12.285Z,160.90
2023-01-19T18:56:41.411Z,132.23
2023-01-19T18:59:10.838Z,134.40
2023-01-19T19:01:42.014Z,134.73
2023-01-19T19:04:11.828Z,136.63
2023-01-19T19:06:41.071Z,128.07
2023-01-19T19:09:11.073Z,131.37
2023-01-19T19:11:39.989Z,142.70
2023-01-19T19:14:09.372Z,120.63
2023-01-19T19:16:39.589Z,133.50
2023-01-19T19:19:11.933Z,159.10
2023-01-19T19:21:41.286Z,131.63
2023-01-19T19:24:11.431Z,113.23
2023-01-19T19:26:42.022Z,101.07
2023-01-19T19:29:11.914Z,85.37
2023-01-19T19:31:41.080Z,86.50
2023-01-19T19:34:12.585Z,98.40
2023-01-19T19:36:42.093Z,141.53
2023-01-19T19:39:11.105Z,142.13
2023-01-19T19:41:40.395Z,116.77
2023-01-19T19:44:12.680Z,90.17
2023-01-19T19:46:42.618Z,79.93
2023-01-19T19:49:13.301Z,103.70
2023-01-19T19:51:42.517Z,112.77
2023-01-19T19:54:12.775Z,148.33
2023-01-19T19:56:43.660Z,140.60
2023-01-19T19:59:14.628Z,133.40
2023-01-19T20:01:47.165Z,112.07
2023-01-19T20:04:21.206Z,90.00
2023-01-19T20:06:51.469Z,78.97
2023-01-19T20:09:21.458Z,76.20
2023-01-19T20:11:52.327Z,82.17
2023-01-19T20:14:22.648Z,102.40
2023-01-19T20:16:53.179Z,86.70
2023-01-19T20:19:24.326Z,85.70
2023-01-19T20:21:53.993Z,95.80
2023-01-19T20:24:23.399Z,89.37
2023-01-19T20:26:54.952Z,85.67
2023-01-19T20:29:24.347Z,86.20
2023-01-19T20:31:55.360Z,91.43
2023-01-19T20:34:32.822Z,90.67
2023-01-19T20:37:03.344Z,88.47
2023-01-19T20:39:35.256Z,90.13
2023-01-19T20:42:05.114Z,88.03
2023-01-19T20:44:34.239Z,105.27
2023-01-19T20:47:05.858Z,95.67
2023-01-19T20:49:37.719Z,92.00
2023-01-19T20:52:07.147Z,111.50
2023-01-19T20:54:36.783Z,111.90
2023-01-19T20:57:06.109Z,113.20
2023-01-19T20:59:37.134Z,98.60
2023-01-19T21:02:12.454Z,92.13
2023-01-19T21:04:43.991Z,80.43
2023-01-19T21:07:14.157Z,75.87
2023-01-19T21:09:44.058Z,74.97
2023-01-19T21:12:15.256Z,75.63
2023-01-19T21:14:46.121Z,79.27
2023-01-19T21:17:15.607Z,78.00
2023-01-19T21:19:46.677Z,85.90
2023-01-19T21:22:15.901Z,81.93
2023-01-19T21:24:45.163Z,85.37
2023-01-19T21:27:14.449Z,90.43
2023-01-19T21:29:43.499Z,85.00
2023-01-19T21:32:13.095Z,96.63
2023-01-19T21:34:46.350Z,118.03
2023-01-19T21:37:16.544Z,116.57
2023-01-19T21:39:46.716Z,121.47
2023-01-19T21:42:15.975Z,97.97
2023-01-19T21:44:44.975Z,107.90
2023-01-19T21:47:14.203Z,136.43
2023-01-19T21:49:43.248Z,116.10
2023-01-19T21:52:13.783Z,102.93
2023-01-19T21:54:43.283Z,105.03
2023-01-19T21:57:15.222Z,120.30
2023-01-19T21:59:44.251Z,118.50
2023-01-19T22:02:13.768Z,108.40
2023-01-19T22:04:43.104Z,97.93
2023-01-19T22:07:13.459Z,127.40
2023-01-19T22:09:42.256Z,127.40
2023-01-19T22:12:10.977Z,126.77
2023-01-19T22:14:39.772Z,120.90
2023-01-19T22:17:08.456Z,124.37
2023-01-19T22:19:37.191Z,127.17
2023-01-19T22:22:05.965Z,132.73
2023-01-19T22:24:36.695Z,135.43
2023-01-19T22:27:05.795Z,131.83
2023-01-19T22:29:34.961Z,120.50
2023-01-19T22:32:03.966Z,127.67
2023-01-19T22:34:33.100Z,127.57
2023-01-19T22:37:02.173Z,104.30
2023-01-19T22:39:31.284Z,105.13
2023-01-19T22:42:01.839Z,101.73
2023-01-19T22:44:31.711Z,106.37
2023-01-19T22:47:00.719Z,116.07
2023-01-19T22:49:30.227Z,114.80
2023-01-19T22:51:59.633Z,116.93
2023-01-19T22:54:29.976Z,119.70
2023-01-19T22:56:59.809Z,127.43
2023-01-19T22:59:30.656Z,134.97
2023-01-19T23:01:59.713Z,158.63
2023-01-19T23:04:28.888Z,167.90
2023-01-19T23:06:57.944Z,135.40
2023-01-19T23:09:26.975Z,103.70
2023-01-19T23:11:56.167Z,96.23
2023-01-19T23:14:25.297Z,99.77
2023-01-19T23:16:55.945Z,98.27
2023-01-19T23:19:24.950Z,101.63
2023-01-19T23:21:54.350Z,112.33
2023-01-19T23:24:23.377Z,101.03
2023-01-19T23:26:53.200Z,137.10
2023-01-19T23:29:22.188Z,138.50
2023-01-19T23:31:53.436Z,131.73
2023-01-19T23:34:24.239Z,121.77
2023-01-19T23:36:53.230Z,100.00
2023-01-19T23:39:23.416Z,90.60
2023-01-19T23:41:52.416Z,92.20
2023-01-19T23:44:21.429Z,97.40
2023-01-19T23:46:50.552Z,102.40
2023-01-19T23:49:19.668Z,147.00
2023-01-19T23:51:50.733Z,119.30
2023-01-19T23:54:19.678Z,102.80
2023-01-19T23:56:48.713Z,95.37
2023-01-19T23:59:18.185Z,88.23
